Gerrish, NH

5:48 AM EDT on May 21, 2018 (GMT -0400)
MNHCAN | | Change Station
Active Advisory: Special Statement

Elev 583 ft 43.37 °N, 71.61 °W | Updated 10 minutes ago

Clear
Clear
48.0 °F
Feels Like 48 °F
N
1.0
Wind Variable Wind from NW
Gusts 1.0 mph

Today
High -- | Low -- °F
--% Chance of Precip.
Yesterday
High -- | Low -- °F
Precip. -- in
Pressure 30.11 in
Visibility 10.0 miles
Clouds Clear
Windchill 48 °F
Dew Point 48 °F
Humidity 99%
Rainfall 0.00 in
Snow Depth Not available.
5:16 AM 8:10 PM
Waxing Crescent, 42% visible
METAR KCON 210851Z AUTO VRB05KT 10SM CLR 09/07 A3010 RMK AO2 SLP194 T00890067 53015
Pressure 30.11 in
Visibility 10.0 miles
Clouds Clear
Windchill 48 °F
Dew Point 48 °F
Humidity 99%
Rainfall 0.00 in
Snow Depth Not available.
5:16 AM 8:10 PM
Waxing Crescent, 42% visible
METAR KCON 210851Z AUTO VRB05KT 10SM CLR 09/07 A3010 RMK AO2 SLP194 T00890067 53015

Get Your Daily Forecast Email!

Thanks for signing up!

Be on the lookout for a verification email in your inbox.

You'll start receiving severe weather alerts in your inbox..

×

10-Day Weather Forecast

Almanac

Astronomy

May. 21, 2018 Rise Set
Actual Time
Civil Twilight
Nautical Twilight
Astronomical Twilight
Moon
Length of Visible Light
Length of Day
Tomorrow will be .
, % of the Moon is Illuminated

Today's Extremes

State Highs State Lows

Community

WunderPhotos

Category 6

Welcome to Category 6. This is the collective home for Weather Underground's featured writeups by Dr. Jeff Masters (right), Bob Henson (left), Chris Burt, and other regular contributors.

Nearby

Air Quality

  Air Quality AQ Index Pollutant
Not available.

Snow Depth

Station Depth Elevation

Earthquake Activity

City Distance Mag. Time & Date
Minimum magnitude displayed is 2.5.

Coastal Water Temperatures

Place Temperature

Stations

Nearby Weather Stations

Station Location Temp. Windchill Dew Point Humidity Wind Precip. Elev Updated Type
                   

Watches & Warnings

Special Statement
Issued: 3:11 AM EDT May. 21, 2018 – National Weather Service

Minimum relative humidity values will fall to 20 to 30 percent this
afternoon, with westerly winds around 10 to 15 mph gusting to
near 20 mph at times. Although red flag criteria is not expected
to be met, with warmer temperatures and full sunshine, persons
should consult their local fire Warden before burning.


Hanes